Domov               UVHVVR             MKGP            O straneh              
ZDRAVSTVENO VARSTVO RASTLIN
  MREŽA AGROMET. POSTAJ
 ► PROGNOSTIČNA OBVESTILA
AGROMETEOROLOŠKI PODATKI -
ARSO
OBVLADOVANJE TVEGANJ ZARADI
NEUGODNIH VREMENSKIH RAZMER
  ► NARAVNE NESREČE
  ► SUŠA/MOČA
  ► NAMAKANJE
  ► ŽLED (gozdarstvo)
KARTOGRAFSKI PRIKAZI
SPLETNE POVEZAVE
PROJEKTI IN PUBLIKACIJE

AGROMETEOROLOŠKA MREŽA: VREMENSKE POSTAJE IN FENOLOŠKA OPAZOVANJA

Pregled podatkov za lokacijo Senožeti, meteorološka postaja 37929

Pregled senzorjev na lokaciji

ID Ime Zadnja
vrednost
Datum
zadnje
spremembe
Tip
senzorja
1791 Omočenost lista (U) 0 U 19.2.2018 14:00 A730WET
1794 Padavine (mm) 0 mm 19.2.2018 14:00 Rain-O-Matic
1793 Relativna vlaga 2 m (% RH) 69,67 % RH 19.2.2018 14:00 50YA
1792 Temperatura 2 m (°C) 1,05 °C 19.2.2018 14:00 50YA

Pregled podatkov zadnjih 24 ur

Zap.
št.
Datum in čas Senožeti
Omočenost
lista
Padavine Relativna
vlaga
2
m
Temperatura
2
m
1 19.2.2018 15:00
2 19.2.2018 14:30
3 19.2.2018 14:00 0 0 69,7 1,1
4 19.2.2018 13:30 0 0 69,6 1
5 19.2.2018 13:00 0 0 68,2 0,9
6 19.2.2018 12:30 0 0 67,6 1,1
7 19.2.2018 12:00 0 0 67,3 1
8 19.2.2018 11:30 0 0 66,4 1,2
9 19.2.2018 11:00 0 0 70,1 0,8
10 19.2.2018 10:30 3 0 75,9 0,2
11 19.2.2018 10:00 2 0 80,3 -0,3
12 19.2.2018 09:30 1 0 73,4 0,2
13 19.2.2018 09:00 0 0 71,6 0
14 19.2.2018 08:30 0 0 75 -0,3
15 19.2.2018 08:00 0 0 81 -0,7
16 19.2.2018 07:30 0 0 82,3 -0,8
17 19.2.2018 07:00 0 0 71,7 0
18 19.2.2018 06:30 0 0 68,9 0,2
19 19.2.2018 06:00 0 0 68,3 0,3
20 19.2.2018 05:30 0 0 69 0,3
21 19.2.2018 05:00 0 0 69,3 0,4
22 19.2.2018 04:30 0 0 70,5 0,5
23 19.2.2018 04:00 0 0 71,1 0,6
24 19.2.2018 03:30 0 0 73,3 0,8
25 19.2.2018 03:00 0 0 72,3 0,9
26 19.2.2018 02:30 0 0 72 1
27 19.2.2018 02:00 0 0 71,8 1,1
28 19.2.2018 01:30 0 0 72,8 1,1
29 19.2.2018 01:00 0 0 72,6 1,3
30 19.2.2018 00:30 0 0 71,8 1,3
31 19.2.2018 00:00 0 0 70,9 1,3
32 18.2.2018 23:30 0 0 71,3 1,4
33 18.2.2018 23:00 0 0 72,5 1,3
34 18.2.2018 22:30 0 0 80,1 0,9
35 18.2.2018 22:00 0 0 80 1,1
36 18.2.2018 21:30 0 0 78,9 1,2
37 18.2.2018 21:00 3 0 85,7 0,9
38 18.2.2018 20:30 5 0 91 0,7
39 18.2.2018 20:00 8 0 86,3 1,1
40 18.2.2018 19:30 10 0 89,1 1
41 18.2.2018 19:00 10 0 95,7 0,8
42 18.2.2018 18:30 10 0 96,3 0,9
43 18.2.2018 18:00 10 0 94 1,2
44 18.2.2018 17:30 10 0,2 92,7 1,5
45 18.2.2018 17:00 10 0 90,1 1,9
46 18.2.2018 16:30 10 0 88,7 2,1
47 18.2.2018 16:00 10 0 86,6 2,3
48 18.2.2018 15:30 10 0 84,8 2,4
© 2011 Ministrstvo za kmetijstvo, gozdarstvo in prehrano. Vse pravice pridržane.